Авиационная погода в аэропорту Новый

Регион: 
Погода METAR: 
UHHH 290530Z 29002MPS 250V330 CAVOK M20/M24 Q1010 R23R/820350 NOSIG RMK QFE751/1002
Время наблюдения
2022-01-29T05:30:00Z
Температура C
-20.0
Точка росы
-24.0
Направление ветра
290
Скорость ветра (узлы)
4
Метео видимость
6.21
Облачность
CAVOK
Нижняя граница облачности (футы)
Явления погоды
Условия полета
VFR
Аэропорт подробнее: